Time;durP1;ratioP1;P1;durP2;ratioP2;P2;SDS_P1;SDS_P2;PMS_P1;PMS_P2;Temp;Humidity;BMP_temperature;BMP_pressure;BME280_temperature;BME280_humidity;BME280_pressure;Samples;Min_cycle;Max_cycle;Signal;HPM_P1;HPM_P2
2021/11/04 00:00:48;;;;;;;23.35;12.32;;;;;;;8.34;70.10;97443.09;5048107;28;20066;-65
2021/11/04 00:03:14;;;;;;;25.27;12.13;;;;;;;8.35;70.01;97432.94;5047064;28;20668;-64
2021/11/04 00:05:39;;;;;;;21.35;11.02;;;;;;;8.32;69.98;97433.56;5047952;28;20021;-65
2021/11/04 00:08:05;;;;;;;23.58;11.23;;;;;;;8.28;70.59;97430.66;5047230;28;20815;-65
2021/11/04 00:10:34;;;;;;;20.73;10.45;;;;;;;8.27;70.48;97433.66;5047335;28;20029;-65
2021/11/04 00:13:01;;;;;;;18.95;10.02;;;;;;;8.22;70.73;97431.88;5047280;28;20021;-65
2021/11/04 00:15:27;;;;;;;17.48;9.93;;;;;;;8.20;70.38;97423.16;5051581;28;20067;-65
2021/11/04 00:17:52;;;;;;;17.65;9.80;;;;;;;8.16;70.42;97411.22;5049446;28;20065;-65
2021/11/04 00:20:18;;;;;;;18.45;10.23;;;;;;;8.15;70.87;97410.41;5049624;28;20021;-65
2021/11/04 00:22:44;;;;;;;16.33;9.25;;;;;;;8.13;71.39;97418.13;5050604;28;20025;-65
2021/11/04 00:25:10;;;;;;;19.77;10.15;;;;;;;8.11;71.26;97414.06;5050355;28;20033;-66
2021/11/04 00:27:37;;;;;;;17.55;9.63;;;;;;;8.11;71.25;97406.69;5050968;28;20074;-65
2021/11/04 00:30:05;;;;;;;19.65;10.40;;;;;;;8.12;71.34;97415.69;5051053;28;20465;-65
2021/11/04 00:32:30;;;;;;;18.58;10.15;;;;;;;8.09;71.50;97410.84;5050420;28;20148;-66
2021/11/04 00:34:56;;;;;;;17.30;9.45;;;;;;;8.07;71.83;97407.59;5051127;28;20148;-65
2021/11/04 00:37:21;;;;;;;17.10;9.43;;;;;;;8.07;72.11;97400.22;5050901;28;20382;-66
2021/11/04 00:39:47;;;;;;;18.20;9.75;;;;;;;8.08;71.86;97398.28;5050717;28;20107;-65
2021/11/04 00:42:12;;;;;;;16.92;10.23;;;;;;;8.11;71.81;97389.50;5049922;28;20025;-65
2021/11/04 00:44:37;;;;;;;19.15;10.43;;;;;;;8.10;71.88;97382.41;5050596;28;20040;-66
2021/11/04 00:47:03;;;;;;;15.32;10.02;;;;;;;8.10;72.20;97371.50;5048156;28;20024;-65
2021/11/04 00:49:28;;;;;;;19.45;11.02;;;;;;;8.14;72.50;97372.50;5050391;28;20021;-65
2021/11/04 00:51:54;;;;;;;18.65;10.40;;;;;;;8.17;71.89;97358.22;5050032;28;20381;-65
2021/11/04 00:54:19;;;;;;;21.10;10.52;;;;;;;8.18;72.32;97363.38;5050332;28;20033;-65
2021/11/04 00:56:44;;;;;;;16.90;9.77;;;;;;;8.19;72.81;97361.47;5048446;28;20040;-67
2021/11/04 00:59:10;;;;;;;18.13;9.57;;;;;;;8.20;72.76;97357.63;5050325;28;20151;-66
2021/11/04 01:01:35;;;;;;;18.05;10.50;;;;;;;8.21;72.53;97364.69;5050195;28;20466;-67
2021/11/04 01:04:01;;;;;;;18.50;10.73;;;;;;;8.23;72.50;97365.19;5050220;28;20453;-66
2021/11/04 01:06:26;;;;;;;17.15;11.18;;;;;;;8.24;72.84;97358.63;5050036;28;20534;-66
2021/11/04 01:08:52;;;;;;;19.65;10.85;;;;;;;8.27;72.32;97354.44;5050279;28;20031;-66
2021/11/04 01:11:18;;;;;;;20.63;11.57;;;;;;;8.28;72.32;97351.44;5050027;28;20043;-66
2021/11/04 01:13:44;;;;;;;18.55;10.93;;;;;;;8.29;72.12;97349.50;5048490;28;20024;-66
2021/11/04 01:16:10;;;;;;;19.10;11.32;;;;;;;8.32;72.27;97352.44;5049910;28;20025;-66
2021/11/04 01:18:36;;;;;;;19.83;11.05;;;;;;;8.37;72.30;97342.47;5048385;28;20025;-66
2021/11/04 01:21:01;;;;;;;19.08;10.68;;;;;;;8.41;72.92;97346.22;5049598;28;20476;-66
2021/11/04 01:23:27;;;;;;;21.58;11.70;;;;;;;8.48;72.91;97347.44;5049341;28;20021;-66
2021/11/04 01:25:53;;;;;;;20.35;12.43;;;;;;;8.56;72.73;97353.28;5048800;28;20024;-66
2021/11/04 01:28:18;;;;;;;17.20;11.07;;;;;;;8.63;72.72;97345.44;5050166;28;20016;-66
2021/11/04 01:30:44;;;;;;;20.40;11.82;;;;;;;8.70;72.15;97343.06;5049624;28;20028;-66
2021/11/04 01:33:10;;;;;;;19.08;11.18;;;;;;;8.75;72.33;97336.69;5049252;28;20037;-67
2021/11/04 01:35:36;;;;;;;21.27;11.85;;;;;;;8.79;72.46;97348.59;5049689;28;20174;-67
2021/11/04 01:38:04;;;;;;;23.33;11.90;;;;;;;8.78;71.63;97341.50;5049601;28;20036;-66
2021/11/04 01:40:31;;;;;;;16.45;10.13;;;;;;;8.72;72.15;97329.91;5049580;28;20025;-66
2021/11/04 01:42:57;;;;;;;15.15;10.32;;;;;;;8.68;71.80;97319.91;5049011;28;20104;-65
2021/11/04 01:45:23;;;;;;;19.33;12.07;;;;;;;8.63;72.13;97304.44;5048315;28;20787;-66
2021/11/04 01:47:48;;;;;;;18.88;11.98;;;;;;;8.60;72.35;97305.88;5047953;28;20021;-66
2021/11/04 01:50:19;;;;;;;14.82;10.00;;;;;;;8.57;71.97;97295.56;5049038;28;20033;-66
2021/11/04 01:52:45;;;;;;;20.05;12.52;;;;;;;8.52;72.29;97282.03;5048382;28;20024;-66
2021/11/04 01:55:16;;;;;;;17.83;11.48;;;;;;;8.48;72.34;97281.00;5049156;28;20150;-66
2021/11/04 01:57:41;;;;;;;17.30;10.65;;;;;;;8.44;72.32;97264.44;5049233;28;20021;-66
2021/11/04 02:00:08;;;;;;;15.88;10.35;;;;;;;8.41;72.85;97253.31;5047983;28;20031;-66
2021/11/04 02:02:42;;;;;;;17.35;11.63;;;;;;;8.39;72.28;97253.63;5048721;28;20041;-66
2021/11/04 02:05:09;;;;;;;18.60;10.95;;;;;;;8.37;73.39;97246.84;5047605;28;20044;-66
2021/11/04 02:07:51;;;;;;;18.23;11.35;;;;;;;8.35;73.24;97256.16;5049199;28;20121;-66
2021/11/04 02:10:27;;;;;;;19.95;11.88;;;;;;;8.39;72.93;97250.91;5048241;28;20059;-66
2021/11/04 02:13:06;;;;;;;18.80;12.90;;;;;;;8.43;73.23;97251.06;5048704;28;20021;-65
2021/11/04 02:15:39;;;;;;;17.63;11.18;;;;;;;8.43;72.73;97237.41;5048534;28;20029;-66
2021/11/04 02:18:08;;;;;;;20.48;13.13;;;;;;;8.43;73.16;97238.22;5048903;28;20444;-66
2021/11/04 02:20:57;;;;;;;21.42;12.80;;;;;;;8.44;72.86;97234.38;5048768;28;20077;-66
2021/11/04 02:23:39;;;;;;;16.67;11.05;;;;;;;8.50;73.17;97237.81;5048012;28;20025;-66
2021/11/04 02:26:05;;;;;;;19.02;12.80;;;;;;;8.48;73.23;97229.09;5048551;28;20595;-66
2021/11/04 02:28:34;;;;;;;22.38;12.40;;;;;;;8.44;72.88;97230.84;5048740;28;20033;-66
2021/11/04 02:31:03;;;;;;;18.35;11.27;;;;;;;8.45;73.43;97219.59;5048748;28;20028;-66
2021/11/04 02:33:29;;;;;;;22.02;12.68;;;;;;;8.46;73.32;97210.28;5048227;28;20041;-66
2021/11/04 02:35:55;;;;;;;19.25;12.00;;;;;;;8.48;73.04;97218.16;5048246;28;20441;-66
2021/11/04 02:38:26;;;;;;;18.45;11.77;;;;;;;8.48;73.43;97207.22;5047787;28;20066;-66
2021/11/04 02:40:53;;;;;;;16.40;10.82;;;;;;;8.50;73.14;97202.28;5048697;28;20052;-66
2021/11/04 02:43:19;;;;;;;13.05;9.05;;;;;;;8.54;73.32;97203.28;5048015;28;20021;-66
2021/11/04 02:45:45;;;;;;;16.65;10.73;;;;;;;8.61;73.29;97202.81;5048888;28;20897;-66
2021/11/04 02:48:11;;;;;;;15.38;9.38;;;;;;;8.68;72.94;97200.44;5048911;28;20096;-66
2021/11/04 02:50:37;;;;;;;16.05;9.52;;;;;;;8.70;72.82;97200.94;5048506;28;20025;-66
2021/11/04 02:53:03;;;;;;;16.77;9.60;;;;;;;8.71;72.86;97197.09;5048104;28;20059;-65
2021/11/04 02:55:37;;;;;;;17.63;10.48;;;;;;;8.75;72.86;97205.47;5048369;28;20139;-66
2021/11/04 02:58:05;;;;;;;15.73;10.07;;;;;;;8.78;72.50;97193.88;5048255;28;20044;-66
2021/11/04 03:00:31;;;;;;;15.90;10.07;;;;;;;8.77;72.85;97192.28;5048384;28;20037;-66
2021/11/04 03:02:56;;;;;;;15.93;11.10;;;;;;;8.76;72.58;97187.97;5047915;28;20119;-66
2021/11/04 03:05:22;;;;;;;15.90;10.23;;;;;;;8.75;73.19;97180.88;5046550;28;20028;-65
2021/11/04 03:07:47;;;;;;;15.23;10.20;;;;;;;8.74;73.02;97179.25;5048206;28;20485;-66
2021/11/04 03:10:12;;;;;;;15.15;10.32;;;;;;;8.73;72.73;97183.91;5048228;28;20052;-65
2021/11/04 03:12:38;;;;;;;16.80;10.50;;;;;;;8.72;72.73;97176.03;5048456;28;20484;-66
2021/11/04 03:15:07;;;;;;;16.15;11.15;;;;;;;8.71;72.71;97177.16;5048301;28;20047;-65
2021/11/04 03:17:34;;;;;;;15.32;10.35;;;;;;;8.70;72.75;97172.81;5048139;28;20476;-65
2021/11/04 03:19:59;;;;;;;16.40;11.07;;;;;;;8.70;73.01;97175.53;5047529;28;20021;-65
2021/11/04 03:22:25;;;;;;;16.83;10.80;;;;;;;8.70;72.53;97181.00;5046367;28;20047;-64
2021/11/04 03:24:51;;;;;;;16.80;12.05;;;;;;;8.68;72.55;97170.38;5047858;28;20449;-65
2021/11/04 03:27:17;;;;;;;17.63;11.02;;;;;;;8.70;72.82;97159.94;5047895;28;20396;-64
2021/11/04 03:29:43;;;;;;;19.55;12.88;;;;;;;8.70;72.65;97179.06;5048001;28;20025;-64
2021/11/04 03:32:21;;;;;;;17.08;10.82;;;;;;;8.71;72.82;97177.94;5047372;28;20040;-65
2021/11/04 03:34:48;;;;;;;16.80;11.70;;;;;;;8.74;72.51;97171.06;5046858;28;20516;-64
2021/11/04 03:37:15;;;;;;;17.02;11.65;;;;;;;8.73;72.74;97166.72;5047659;28;20119;-66
2021/11/04 03:39:43;;;;;;;18.50;11.75;;;;;;;8.71;73.03;97168.97;5047829;28;20032;-66
2021/11/04 03:42:11;;;;;;;17.42;10.75;;;;;;;8.67;73.21;97151.56;5047477;28;20040;-66
2021/11/04 03:44:39;;;;;;;17.75;11.85;;;;;;;8.67;73.02;97173.44;5047173;28;20090;-65
2021/11/04 03:47:05;;;;;;;15.63;10.90;;;;;;;8.68;73.12;97153.19;5047243;28;20380;-66
2021/11/04 03:49:32;;;;;;;21.17;12.77;;;;;;;8.68;73.27;97159.44;5049925;28;20025;-65
2021/11/04 03:51:58;;;;;;;17.27;11.10;;;;;;;8.72;73.11;97159.63;5050332;28;20032;-65
2021/11/04 03:54:26;;;;;;;16.30;10.75;;;;;;;8.70;72.48;97159.16;5050740;28;20021;-65
2021/11/04 03:56:53;;;;;;;15.40;10.20;;;;;;;8.69;72.54;97147.41;5048540;28;20040;-65
2021/11/04 03:59:19;;;;;;;15.20;9.60;;;;;;;8.72;73.22;97140.50;5050866;28;20108;-66
2021/11/04 04:01:45;;;;;;;12.48;8.60;;;;;;;8.72;73.15;97145.97;5050885;28;20047;-65
2021/11/04 04:04:11;;;;;;;15.30;10.15;;;;;;;8.70;73.07;97134.53;5050653;28;20025;-66
2021/11/04 04:06:37;;;;;;;17.27;10.48;;;;;;;8.68;73.28;97129.38;5049390;28;20969;-65
2021/11/04 04:09:06;;;;;;;15.65;9.38;;;;;;;8.60;73.37;97122.78;5051250;28;20055;-65
2021/11/04 04:11:32;;;;;;;16.27;10.30;;;;;;;8.56;73.44;97116.31;5051328;28;20656;-66
2021/11/04 04:13:57;;;;;;;18.70;9.65;;;;;;;8.54;73.81;97107.63;5042474;28;20071;-65
2021/11/04 04:16:24;;;;;;;13.93;9.32;;;;;;;8.53;74.06;97113.44;5049194;28;20025;-65
2021/11/04 04:18:50;;;;;;;15.13;8.90;;;;;;;8.48;74.21;97097.94;5050199;28;20009;-65
2021/11/04 04:21:16;;;;;;;14.02;9.32;;;;;;;8.44;74.69;97088.75;5050286;28;20021;-65
2021/11/04 04:23:42;;;;;;;13.43;8.95;;;;;;;8.42;74.87;97077.34;5050299;28;20029;-65
2021/11/04 04:26:08;;;;;;;15.70;9.10;;;;;;;8.39;74.58;97083.44;5049038;28;20095;-65
2021/11/04 04:28:33;;;;;;;13.98;8.70;;;;;;;8.33;74.67;97075.41;5051469;28;20017;-66
2021/11/04 04:30:59;;;;;;;14.63;9.57;;;;;;;8.31;74.83;97061.25;5051750;28;20021;-66
2021/11/04 04:33:24;;;;;;;14.25;9.50;;;;;;;8.29;75.50;97055.28;5051352;28;20486;-65
2021/11/04 04:35:51;;;;;;;15.77;9.20;;;;;;;8.29;75.35;97055.28;5051844;28;20660;-65
2021/11/04 04:38:17;;;;;;;15.50;10.07;;;;;;;8.28;75.91;97037.28;5051600;28;20497;-66
2021/11/04 04:40:43;;;;;;;18.23;10.88;;;;;;;8.24;75.75;97033.59;5051690;28;20465;-66
2021/11/04 04:43:09;;;;;;;18.88;10.27;;;;;;;8.20;75.77;97030.66;5051512;28;20024;-66
2021/11/04 04:45:35;;;;;;;15.63;10.95;;;;;;;8.16;75.54;97037.09;5051299;28;20052;-66
2021/11/04 04:48:00;;;;;;;16.52;10.60;;;;;;;8.13;75.66;97037.72;5051742;28;20028;-66
2021/11/04 04:50:26;;;;;;;20.38;12.65;;;;;;;8.10;76.11;97025.50;5051721;28;20032;-66
2021/11/04 04:52:51;;;;;;;19.10;12.82;;;;;;;8.09;76.30;97031.25;5052143;28;20009;-65
2021/11/04 04:55:17;;;;;;;21.33;13.48;;;;;;;8.09;75.95;97028.53;5051735;28;20496;-66
2021/11/04 04:57:42;;;;;;;21.27;13.98;;;;;;;8.10;76.13;97028.22;5051656;28;20017;-66
2021/11/04 05:00:11;;;;;;;20.20;12.80;;;;;;;8.12;76.44;97015.06;5051127;28;20013;-66
2021/11/04 05:02:38;;;;;;;20.70;14.13;;;;;;;8.10;76.48;97011.03;5051340;28;21001;-66
2021/11/04 05:05:04;;;;;;;21.17;13.90;;;;;;;8.08;76.35;97005.91;5051319;28;20983;-66
2021/11/04 05:07:29;;;;;;;20.35;12.77;;;;;;;8.07;76.48;96992.53;5051600;28;20102;-66
2021/11/04 05:09:54;;;;;;;21.77;13.65;;;;;;;8.03;76.79;96981.47;5051724;28;20028;-66
2021/11/04 05:12:21;;;;;;;22.15;12.93;;;;;;;7.99;76.55;96978.53;5050131;28;20385;-65
2021/11/04 05:14:47;;;;;;;19.02;12.52;;;;;;;7.96;76.99;96967.47;5051704;28;20017;-66
2021/11/04 05:17:12;;;;;;;19.25;12.77;;;;;;;7.95;76.83;96972.09;5050690;28;20044;-66
2021/11/04 05:19:37;;;;;;;21.20;12.77;;;;;;;7.93;77.46;96966.19;5052026;28;20096;-66
2021/11/04 05:22:03;;;;;;;20.95;12.05;;;;;;;7.88;77.13;96960.84;5051019;28;20024;-66
2021/11/04 05:24:34;;;;;;;20.90;13.30;;;;;;;7.86;77.02;96961.16;5051218;28;20017;-66
2021/11/04 05:27:06;;;;;;;19.80;12.18;;;;;;;7.85;77.31;96947.84;5049540;28;20044;-66
2021/11/04 05:29:32;;;;;;;18.88;12.30;;;;;;;7.84;77.64;96951.69;5050095;28;20021;-67
2021/11/04 05:31:58;;;;;;;18.02;11.05;;;;;;;7.81;77.83;96952.31;5050511;28;20062;-66
2021/11/04 05:34:24;;;;;;;17.05;10.75;;;;;;;7.80;77.41;96964.34;5050936;28;20095;-66
2021/11/04 05:36:49;;;;;;;20.65;12.10;;;;;;;7.80;77.76;96965.16;5049811;28;20428;-66
2021/11/04 05:39:15;;;;;;;19.15;12.52;;;;;;;7.83;78.07;96966.44;5051871;28;20469;-66
2021/11/04 05:41:40;;;;;;;18.67;12.02;;;;;;;7.82;77.77;96975.75;5051810;28;20033;-67
2021/11/04 05:44:05;;;;;;;18.00;11.20;;;;;;;7.83;77.69;96959.06;5051708;28;20112;-66
2021/11/04 05:46:31;;;;;;;18.58;11.02;;;;;;;7.85;77.37;96954.09;5052038;28;20135;-66
2021/11/04 05:48:56;;;;;;;19.73;11.93;;;;;;;7.89;77.40;96959.75;5051730;28;20120;-66
2021/11/04 05:51:22;;;;;;;20.70;13.55;;;;;;;7.90;77.82;96955.88;5051530;28;20440;-66
2021/11/04 05:53:47;;;;;;;23.25;14.20;;;;;;;7.94;77.69;96966.97;5051401;28;20029;-66
2021/11/04 05:56:12;;;;;;;18.52;11.80;;;;;;;7.97;77.50;96960.88;5051962;28;20397;-66
2021/11/04 05:58:38;;;;;;;21.55;13.55;;;;;;;7.96;77.43;96965.53;5050518;28;20063;-66
2021/11/04 06:01:04;;;;;;;19.83;12.27;;;;;;;7.97;77.33;96958.94;5052385;28;20033;-66
2021/11/04 06:03:30;;;;;;;20.65;12.70;;;;;;;7.99;77.33;96958.63;5051800;28;20116;-66
2021/11/04 06:05:55;;;;;;;22.80;13.80;;;;;;;8.01;77.95;96954.47;5052170;28;20075;-66
2021/11/04 06:08:21;;;;;;;22.83;13.70;;;;;;;8.00;77.61;96949.34;5051364;28;20025;-66
2021/11/04 06:10:46;;;;;;;20.02;13.45;;;;;;;8.01;77.45;96948.22;5051577;28;20051;-66
2021/11/04 06:13:12;;;;;;;22.17;13.15;;;;;;;8.02;77.22;96938.91;5051670;28;20025;-66
2021/11/04 06:15:37;;;;;;;23.20;13.30;;;;;;;8.06;77.33;96948.06;5051509;28;20485;-66
2021/11/04 06:18:03;;;;;;;22.20;14.55;;;;;;;8.10;77.46;96937.31;5051532;28;20067;-66
2021/11/04 06:20:29;;;;;;;19.08;11.98;;;;;;;8.12;77.50;96943.25;5051955;28;20037;-66
2021/11/04 06:22:55;;;;;;;21.45;13.25;;;;;;;8.14;77.63;96938.28;5052372;28;20028;-66
2021/11/04 06:25:21;;;;;;;22.40;12.63;;;;;;;8.15;77.35;96956.28;5050312;28;20029;-66
2021/11/04 06:27:46;;;;;;;22.25;13.30;;;;;;;8.17;77.57;96954.81;5051066;28;20116;-66
2021/11/04 06:30:12;;;;;;;23.30;13.85;;;;;;;8.21;77.27;96949.53;5050469;28;20013;-66
2021/11/04 06:32:37;;;;;;;22.75;13.60;;;;;;;8.23;77.58;96957.41;5051119;28;20047;-66
2021/11/04 06:35:05;;;;;;;20.60;13.18;;;;;;;8.22;77.18;96951.16;5051514;28;20025;-65
2021/11/04 06:37:31;;;;;;;24.60;14.20;;;;;;;8.20;77.71;96943.25;5051288;28;20021;-66
2021/11/04 06:39:58;;;;;;;22.23;13.05;;;;;;;8.22;77.51;96956.63;5051552;28;20032;-65
2021/11/04 06:42:23;;;;;;;21.95;13.68;;;;;;;8.24;78.47;96954.38;5051295;28;20017;-66
2021/11/04 06:44:49;;;;;;;25.23;14.13;;;;;;;8.25;77.58;96953.25;5051393;28;20021;-66
2021/11/04 06:47:38;;;;;;;24.52;14.27;;;;;;;8.29;77.96;96951.50;5050876;28;20108;-67
2021/11/04 06:50:05;;;;;;;21.35;12.68;;;;;;;8.31;77.52;96943.78;5040208;28;20135;-66
2021/11/04 06:52:36;;;;;;;20.42;11.95;;;;;;;8.34;77.84;96934.97;5050671;28;20033;-66
2021/11/04 06:55:04;;;;;;;24.77;12.52;;;;;;;8.36;77.97;96937.34;5050819;28;20029;-66
2021/11/04 06:57:31;;;;;;;19.80;11.82;;;;;;;8.42;77.66;96944.28;5051806;28;20051;-67
2021/11/04 07:00:00;;;;;;;22.65;12.50;;;;;;;8.47;77.81;96929.66;5050590;28;20020;-66
2021/11/04 07:02:37;;;;;;;19.70;11.20;;;;;;;8.49;77.98;96932.91;5048681;28;20120;-66
2021/11/04 07:05:07;;;;;;;20.02;10.38;;;;;;;8.53;78.05;96939.34;5051130;28;20036;-66
2021/11/04 07:07:43;;;;;;;19.20;10.70;;;;;;;8.58;77.81;96928.25;5051172;28;20036;-67
2021/11/04 07:10:11;;;;;;;20.80;11.48;;;;;;;8.61;77.41;96919.41;5050905;28;20275;-66
2021/11/04 07:12:36;;;;;;;20.08;11.18;;;;;;;8.63;77.28;96928.09;5050657;28;20033;-66
2021/11/04 07:15:02;;;;;;;19.45;11.48;;;;;;;8.66;77.83;96912.19;5050766;28;20079;-66
2021/11/04 07:17:28;;;;;;;15.77;9.55;;;;;;;8.66;77.36;96912.19;5049581;28;20059;-65
2021/11/04 07:19:53;;;;;;;15.18;9.18;;;;;;;8.69;77.00;96917.81;5052399;28;20043;-66
2021/11/04 07:22:30;;;;;;;19.98;10.90;;;;;;;8.72;76.90;96910.91;5048903;28;20094;-65
2021/11/04 07:25:17;;;;;;;17.38;9.63;;;;;;;8.73;77.69;96907.84;5054122;28;20036;-66
2021/11/04 07:28:03;;;;;;;17.77;10.50;;;;;;;8.78;77.02;96887.72;5057057;28;20033;-67
2021/11/04 07:30:30;;;;;;;18.08;10.02;;;;;;;8.83;77.23;96878.56;5054480;28;20029;-66
2021/11/04 07:33:05;;;;;;;24.48;11.75;;;;;;;8.90;77.72;96878.88;5053871;28;20084;-66
2021/11/04 07:35:34;;;;;;;20.00;11.80;;;;;;;8.98;77.85;96877.25;5054638;28;20035;-67
2021/11/04 07:38:01;;;;;;;19.00;10.50;;;;;;;9.05;77.17;96867.41;5055599;28;20033;-67
2021/11/04 07:40:28;;;;;;;19.95;10.65;;;;;;;9.14;77.26;96864.69;5053334;28;20694;-67
2021/11/04 07:42:54;;;;;;;18.60;10.35;;;;;;;9.23;76.91;96879.13;5054340;28;20052;-67
2021/11/04 07:45:20;;;;;;;14.80;8.93;;;;;;;9.32;76.97;96870.91;5053516;28;20064;-66
2021/11/04 07:47:47;;;;;;;18.00;10.45;;;;;;;9.37;76.74;96864.44;5055213;28;20533;-67
2021/11/04 07:50:27;;;;;;;17.38;10.30;;;;;;;9.45;76.68;96868.25;5052632;28;20461;-67
2021/11/04 07:52:53;;;;;;;15.65;9.52;;;;;;;9.56;76.77;96872.25;5054121;28;20025;-67
2021/11/04 07:55:19;;;;;;;16.67;9.75;;;;;;;9.65;76.74;96870.28;5053819;28;20104;-67
2021/11/04 07:57:45;;;;;;;18.17;10.73;;;;;;;9.74;76.18;96872.97;5054424;28;20044;-66
2021/11/04 08:00:14;;;;;;;18.83;11.48;;;;;;;9.89;76.69;96879.03;5053743;28;20043;-66
2021/11/04 08:02:43;;;;;;;22.70;13.90;;;;;;;10.00;77.12;96873.97;5051303;28;20091;-68
2021/11/04 08:05:10;;;;;;;17.98;10.68;;;;;;;10.11;75.64;96881.44;5053943;28;20029;-68
2021/11/04 08:07:37;;;;;;;18.30;10.77;;;;;;;10.23;76.45;96879.94;5054064;28;20517;-68
2021/11/04 08:10:04;;;;;;;16.17;10.50;;;;;;;10.33;75.77;96876.00;5053991;28;20032;-67
2021/11/04 08:12:32;;;;;;;16.25;8.95;;;;;;;10.41;76.25;96845.81;5053806;28;20094;-67
2021/11/04 08:14:57;;;;;;;16.50;9.75;;;;;;;10.48;74.99;96839.00;5052623;28;20043;-67
2021/11/04 08:17:23;;;;;;;21.08;11.82;;;;;;;10.50;75.56;96843.00;5054132;28;20556;-68
2021/11/04 08:19:49;;;;;;;16.50;9.48;;;;;;;10.54;75.22;96838.47;5052505;28;20033;-68
2021/11/04 08:22:16;;;;;;;16.90;10.55;;;;;;;10.60;74.58;96835.53;5053326;28;20096;-68
2021/11/04 08:24:41;;;;;;;16.05;10.18;;;;;;;10.66;75.01;96832.22;5053642;28;20031;-65
2021/11/04 08:27:06;;;;;;;17.75;10.73;;;;;;;10.70;74.60;96835.91;5051603;28;20809;-65
2021/11/04 08:29:32;;;;;;;15.23;8.73;;;;;;;10.78;75.13;96816.97;5053373;28;20033;-66
2021/11/04 08:31:57;;;;;;;16.38;9.88;;;;;;;10.85;74.32;96822.69;5054153;28;20109;-66
2021/11/04 08:34:22;;;;;;;23.58;16.50;;;;;;;10.92;74.54;96801.00;5051873;28;20048;-66
2021/11/04 08:36:48;;;;;;;19.80;14.88;;;;;;;11.00;73.95;96802.84;5053315;28;20060;-66
2021/11/04 08:39:14;;;;;;;28.13;24.65;;;;;;;11.11;74.63;96794.19;5053257;28;20354;-65
2021/11/04 08:41:41;;;;;;;20.15;14.95;;;;;;;11.24;74.55;96806.75;5052716;28;20028;-67
2021/11/04 08:44:06;;;;;;;29.45;26.25;;;;;;;11.42;74.28;96799.09;5053040;28;20752;-66
2021/11/04 08:46:31;;;;;;;41.47;33.20;;;;;;;11.68;74.05;96814.44;5051283;28;20107;-66
2021/11/04 08:48:57;;;;;;;23.58;18.35;;;;;;;11.81;74.13;96806.22;5046480;28;20021;-66
2021/11/04 08:51:22;;;;;;;23.15;14.68;;;;;;;11.90;73.56;96799.44;5051716;28;20389;-66
2021/11/04 08:53:48;;;;;;;15.98;11.50;;;;;;;12.01;73.52;96799.78;5051017;28;20078;-66
2021/11/04 08:56:14;;;;;;;14.77;10.60;;;;;;;12.12;73.78;96794.59;5051483;28;20115;-66
2021/11/04 08:58:39;;;;;;;17.02;12.35;;;;;;;12.23;73.17;96791.38;5051312;28;20454;-67
2021/11/04 09:01:05;;;;;;;18.02;13.73;;;;;;;12.35;72.96;96783.88;5052373;28;20186;-67
2021/11/04 09:03:31;;;;;;;17.40;13.73;;;;;;;12.42;72.23;96799.81;5051852;28;20029;-67
2021/11/04 09:05:56;;;;;;;14.55;11.57;;;;;;;12.49;72.52;96799.97;5051823;28;20033;-66
2021/11/04 09:08:23;;;;;;;17.17;12.48;;;;;;;12.59;72.71;96803.38;5052294;28;20025;-67
2021/11/04 09:10:49;;;;;;;17.70;12.52;;;;;;;12.70;72.45;96804.50;5051668;28;20035;-68
2021/11/04 09:13:16;;;;;;;13.88;9.68;;;;;;;12.89;72.16;96809.31;5051197;28;20033;-66
2021/11/04 09:15:41;;;;;;;13.23;9.43;;;;;;;13.14;72.11;96805.63;5050154;28;20025;-66
2021/11/04 09:18:07;;;;;;;14.55;9.18;;;;;;;13.40;72.09;96794.88;5051459;28;20102;-66
2021/11/04 09:20:34;;;;;;;12.05;7.68;;;;;;;13.58;71.27;96786.31;5052051;28;20029;-67
2021/11/04 09:22:59;;;;;;;10.70;6.53;;;;;;;13.66;71.52;96792.78;5051315;28;20025;-66
2021/11/04 09:25:26;;;;;;;10.00;7.25;;;;;;;13.65;70.80;96774.66;5051730;28;20036;-66
2021/11/04 09:27:55;;;;;;;12.05;7.07;;;;;;;13.60;70.32;96778.47;5046422;28;20052;-66
2021/11/04 09:30:21;;;;;;;10.95;7.35;;;;;;;13.55;70.46;96789.75;5049674;28;20384;-67
2021/11/04 09:32:47;;;;;;;12.02;7.18;;;;;;;13.52;70.16;96793.22;5050063;28;20055;-66
2021/11/04 09:35:13;;;;;;;14.57;7.85;;;;;;;13.47;70.18;96785.25;5050043;28;20716;-67
2021/11/04 09:37:39;;;;;;;16.40;8.68;;;;;;;13.46;70.16;96767.13;5050770;28;20033;-66
2021/11/04 09:40:06;;;;;;;16.70;9.45;;;;;;;13.43;70.08;96767.81;5049121;28;20029;-68
2021/11/04 09:42:33;;;;;;;16.83;9.40;;;;;;;13.38;69.45;96766.91;5049149;28;20020;-67
2021/11/04 09:44:59;;;;;;;14.32;7.40;;;;;;;13.36;69.99;96755.44;5049679;28;20029;-68
2021/11/04 09:47:27;;;;;;;18.20;8.98;;;;;;;13.33;69.83;96747.91;5049706;28;20397;-67
2021/11/04 09:49:57;;;;;;;15.88;8.25;;;;;;;13.34;69.09;96752.25;5047049;28;20025;-66
2021/11/04 09:52:27;;;;;;;13.90;8.07;;;;;;;13.38;69.55;96755.91;5049540;28;20025;-67
2021/11/04 09:54:54;;;;;;;12.98;7.57;;;;;;;13.44;69.45;96741.88;5048531;28;20020;-67
2021/11/04 09:57:24;;;;;;;14.88;7.72;;;;;;;13.51;69.64;96739.31;5048277;28;20021;-67
2021/11/04 09:59:51;;;;;;;13.05;7.07;;;;;;;13.58;69.25;96736.72;5050660;28;20062;-67
2021/11/04 10:02:27;;;;;;;10.65;6.35;;;;;;;13.65;69.47;96742.38;5048102;28;20032;-67
2021/11/04 10:05:02;;;;;;;8.80;5.28;;;;;;;13.75;69.20;96738.28;5050762;28;20033;-66
2021/11/04 10:07:42;;;;;;;9.10;6.75;;;;;;;13.84;69.39;96732.56;5049914;28;20040;-67
2021/11/04 10:10:09;;;;;;;10.18;6.65;;;;;;;13.92;69.01;96750.03;5049439;28;20162;-67
2021/11/04 10:12:34;;;;;;;9.35;6.05;;;;;;;13.97;69.02;96756.09;5051209;28;20087;-67
2021/11/04 10:15:15;;;;;;;11.35;7.15;;;;;;;14.03;68.77;96744.78;5047138;28;20068;-66
2021/11/04 10:17:40;;;;;;;11.90;6.57;;;;;;;14.07;68.48;96746.44;5048917;28;20043;-67
2021/11/04 10:20:14;;;;;;;12.85;7.18;;;;;;;14.06;67.67;96736.56;5051793;28;20017;-67
2021/11/04 10:22:39;;;;;;;12.05;7.00;;;;;;;14.06;67.81;96746.81;5047520;28;20511;-67
2021/11/04 10:25:05;;;;;;;15.20;7.63;;;;;;;14.04;67.41;96730.63;5049289;28;20028;-67
2021/11/04 10:27:34;;;;;;;12.38;7.20;;;;;;;14.07;67.51;96748.38;5049334;28;20055;-67
2021/11/04 10:30:04;;;;;;;13.37;7.20;;;;;;;14.14;67.74;96748.53;5048360;28;20029;-67
2021/11/04 10:32:38;;;;;;;;;;;;;;;14.21;68.00;96736.88;5050361;28;20275;-67
2021/11/04 10:35:10;;;;;;;14.85;6.82;;;;;;;14.23;67.58;96738.09;5047577;28;20288;-67
2021/11/04 10:37:44;;;;;;;10.15;6.30;;;;;;;14.31;67.98;96738.25;5049830;28;20532;-67
2021/11/04 10:40:16;;;;;;;10.68;6.53;;;;;;;14.42;67.97;96750.31;5050141;28;20056;-67
2021/11/04 10:42:58;;;;;;;12.45;7.68;;;;;;;14.54;67.95;96743.81;5049176;28;20024;-66
2021/11/04 10:45:26;;;;;;;14.80;6.93;;;;;;;14.65;68.05;96752.31;5050106;28;20028;-67
2021/11/04 10:48:23;;;;;;;16.67;7.43;;;;;;;14.78;67.92;96761.25;5049764;28;20094;-66
2021/11/04 10:50:49;;;;;;;16.55;8.30;;;;;;;14.83;67.52;96755.44;5049485;28;20037;-67
2021/11/04 10:53:20;;;;;;;12.00;7.75;;;;;;;14.91;67.78;96761.88;5049552;28;20076;-67
2021/11/04 10:55:47;;;;;;;14.55;8.00;;;;;;;15.00;67.43;96759.66;5050154;28;20064;-67
2021/11/04 10:58:33;;;;;;;11.82;7.50;;;;;;;15.14;67.41;96765.44;5048231;28;20051;-67
2021/11/04 11:01:00;;;;;;;14.70;7.50;;;;;;;15.27;67.77;96757.78;5048110;28;20021;-67
2021/11/04 11:03:28;;;;;;;12.35;7.57;;;;;;;15.36;67.70;96749.22;5046211;28;20029;-67
2021/11/04 11:05:56;;;;;;;13.70;6.68;;;;;;;15.40;66.77;96760.34;5045900;28;20037;-66
2021/11/04 11:08:24;;;;;;;11.82;6.15;;;;;;;15.42;66.71;96753.28;5048937;28;20021;-65
2021/11/04 11:10:50;;;;;;;9.68;4.95;;;;;;;15.48;66.69;96762.84;5047567;28;20029;-66
2021/11/04 11:13:16;;;;;;;10.02;5.57;;;;;;;15.54;66.41;96757.00;5048430;28;20033;-66
2021/11/04 11:15:42;;;;;;;8.02;5.35;;;;;;;15.56;66.10;96755.47;5049083;28;20020;-66
2021/11/04 11:18:09;;;;;;;8.93;5.50;;;;;;;15.61;66.66;96746.06;5049687;28;20025;-66
2021/11/04 11:20:46;;;;;;;5.85;4.60;;;;;;;15.61;66.61;96755.13;5051015;28;20032;-67
2021/11/04 11:23:19;;;;;;;9.50;5.30;;;;;;;15.64;65.76;96756.38;5049067;28;20401;-66
2021/11/04 11:25:50;;;;;;;14.88;6.20;;;;;;;15.71;65.14;96758.44;5046129;28;20031;-64
2021/11/04 11:28:17;;;;;;;15.85;6.85;;;;;;;15.80;65.86;96766.47;5052072;28;20047;-65